Jonancy, Kentucky
Current Conditions -  °F | °C
As of 7:35 PM on Friday 24 Oct 2014 (Local Time) from KPBX Reporting Station
Clear Clear  
Wind Chill: 54°   Ceiling: Unl
Heat Index: 54°   Visibility: 10mi
Dew Point: 40°   Wind: 0mph
Humidity: 59%   Direction: NA
Pressure: 30.07"   Gusts: NA
Location:  37.32°N, 82.58°W
Report Text: KPBX 242335Z AUTO 00000KT 10SM CLR 12/05 A3007 RMK AO2 T01230045
Loading
Personal Weather Stations






























Interactive Weather Map
Tropical Storm Tracking
New forecast layout! Learn more

10-Day Weather Forecast

Advertisements
Track Severe Weather on mobile